Sintaluta, Canada
Current Conditions -  °F | °C
As of 9:00 AM on Saturday 25 Oct 2014 (Local Time) from CYQR Reporting Station
Few Clouds Few Clouds  
Wind Chill: 30°   Ceiling: Unl
Heat Index: 34°   Visibility: 15mi
Dew Point: 30°   Wind: 5mph
Humidity: 87%   Direction: 160°SSE
Pressure: 30.08"   Gusts: NA
Location:  50.48°N, 103.43°W
Report Text: CYQR 251500Z 16004KT 15SM FEW270 01/M01 A3008 RMK CI2 SLP214
Loading
Personal Weather Stations






























Interactive Weather Map
Tropical Storm Tracking
New forecast layout! Learn more

10-Day Weather Forecast

Advertisements
Track Severe Weather on mobile